Terminal Aerodrome Forecast
Issued by NWS

Home | Current Version | Previous Version | Text Only | Print | Product List | Glossary On
Versions: 1 2 3 4 5 6 7 8 9 10 11 12 13 14 15
000
FTUS41 KBTV 291736
TAFRUT
TAF
KRUT 291736Z 2918/3018 35008KT P6SM VCSH SCT035 BKN070
     FM292100 01007KT P6SM FEW080 FEW200
     FM300100 12006KT P6SM FEW250
     FM301100 00000KT P6SM SCT150
     FM301500 36006KT P6SM SCT040 BKN150
      AMD LTD TO CLD VIS AND WIND=

USA.gov is the U.S. government's official web portal to all federal, state and local government web resources and services.